sensor_id;sensor_type;location;lat;lon;timestamp;P1;durP1;ratioP1;P2;durP2;ratioP2
4963;SDS011;2497;47.410;9.740;2023-07-22T00:00:00;10.93;;;4.37;;
4963;SDS011;2497;47.410;9.740;2023-07-22T00:02:29;5.60;;;3.90;;
4963;SDS011;2497;47.410;9.740;2023-07-22T00:04:56;6.67;;;3.80;;
4963;SDS011;2497;47.410;9.740;2023-07-22T00:07:23;7.70;;;4.17;;
4963;SDS011;2497;47.410;9.740;2023-07-22T00:09:50;8.13;;;4.10;;
4963;SDS011;2497;47.410;9.740;2023-07-22T00:12:17;9.07;;;4.03;;
4963;SDS011;2497;47.410;9.740;2023-07-22T00:14:46;4.63;;;3.50;;
4963;SDS011;2497;47.410;9.740;2023-07-22T00:17:15;10.13;;;4.00;;
4963;SDS011;2497;47.410;9.740;2023-07-22T00:19:42;6.60;;;4.93;;
4963;SDS011;2497;47.410;9.740;2023-07-22T00:22:09;12.90;;;4.37;;
4963;SDS011;2497;47.410;9.740;2023-07-22T00:24:40;11.00;;;4.20;;
4963;SDS011;2497;47.410;9.740;2023-07-22T00:27:07;7.27;;;3.50;;
4963;SDS011;2497;47.410;9.740;2023-07-22T00:29:34;8.80;;;4.60;;
4963;SDS011;2497;47.410;9.740;2023-07-22T00:32:04;12.07;;;4.90;;
4963;SDS011;2497;47.410;9.740;2023-07-22T00:34:36;6.13;;;4.60;;
4963;SDS011;2497;47.410;9.740;2023-07-22T00:37:04;8.33;;;4.90;;
4963;SDS011;2497;47.410;9.740;2023-07-22T00:39:31;11.73;;;5.40;;
4963;SDS011;2497;47.410;9.740;2023-07-22T00:41:59;7.07;;;4.80;;
4963;SDS011;2497;47.410;9.740;2023-07-22T00:44:26;6.90;;;4.10;;
4963;SDS011;2497;47.410;9.740;2023-07-22T00:46:54;10.47;;;4.53;;
4963;SDS011;2497;47.410;9.740;2023-07-22T00:49:25;10.00;;;4.93;;
4963;SDS011;2497;47.410;9.740;2023-07-22T00:51:53;11.60;;;4.63;;
4963;SDS011;2497;47.410;9.740;2023-07-22T00:54:22;8.53;;;4.70;;
4963;SDS011;2497;47.410;9.740;2023-07-22T00:56:49;8.13;;;3.77;;
4963;SDS011;2497;47.410;9.740;2023-07-22T00:59:17;8.10;;;3.63;;
4963;SDS011;2497;47.410;9.740;2023-07-22T01:01:46;8.40;;;3.90;;
4963;SDS011;2497;47.410;9.740;2023-07-22T01:04:14;10.10;;;4.03;;
4963;SDS011;2497;47.410;9.740;2023-07-22T01:06:43;10.30;;;4.30;;
4963;SDS011;2497;47.410;9.740;2023-07-22T01:09:12;8.87;;;3.47;;
4963;SDS011;2497;47.410;9.740;2023-07-22T01:11:39;5.67;;;3.60;;
4963;SDS011;2497;47.410;9.740;2023-07-22T01:14:09;8.90;;;3.83;;
4963;SDS011;2497;47.410;9.740;2023-07-22T01:16:39;7.87;;;4.07;;
4963;SDS011;2497;47.410;9.740;2023-07-22T01:19:10;5.27;;;3.80;;
4963;SDS011;2497;47.410;9.740;2023-07-22T01:21:39;7.70;;;4.20;;
4963;SDS011;2497;47.410;9.740;2023-07-22T01:24:11;7.40;;;3.47;;
4963;SDS011;2497;47.410;9.740;2023-07-22T01:26:39;10.23;;;3.77;;
4963;SDS011;2497;47.410;9.740;2023-07-22T01:29:06;7.37;;;4.43;;
4963;SDS011;2497;47.410;9.740;2023-07-22T01:31:34;7.37;;;3.70;;
4963;SDS011;2497;47.410;9.740;2023-07-22T01:34:01;7.17;;;4.27;;
4963;SDS011;2497;47.410;9.740;2023-07-22T01:36:29;8.60;;;4.33;;
4963;SDS011;2497;47.410;9.740;2023-07-22T01:38:58;8.50;;;4.17;;
4963;SDS011;2497;47.410;9.740;2023-07-22T01:41:27;11.77;;;5.77;;
4963;SDS011;2497;47.410;9.740;2023-07-22T01:43:54;10.80;;;6.77;;
4963;SDS011;2497;47.410;9.740;2023-07-22T01:46:21;7.70;;;5.47;;
4963;SDS011;2497;47.410;9.740;2023-07-22T01:48:48;10.30;;;6.60;;
4963;SDS011;2497;47.410;9.740;2023-07-22T01:51:16;13.90;;;6.60;;
4963;SDS011;2497;47.410;9.740;2023-07-22T01:53:43;15.00;;;6.40;;
4963;SDS011;2497;47.410;9.740;2023-07-22T01:56:10;12.10;;;7.23;;
4963;SDS011;2497;47.410;9.740;2023-07-22T01:58:39;13.20;;;6.87;;
4963;SDS011;2497;47.410;9.740;2023-07-22T02:01:06;11.40;;;6.67;;
4963;SDS011;2497;47.410;9.740;2023-07-22T02:03:35;12.60;;;7.03;;
4963;SDS011;2497;47.410;9.740;2023-07-22T02:06:02;13.83;;;6.37;;
4963;SDS011;2497;47.410;9.740;2023-07-22T02:08:29;15.53;;;6.50;;
4963;SDS011;2497;47.410;9.740;2023-07-22T02:11:00;11.80;;;6.23;;
4963;SDS011;2497;47.410;9.740;2023-07-22T02:13:29;10.90;;;6.50;;
4963;SDS011;2497;47.410;9.740;2023-07-22T02:15:58;10.10;;;5.80;;
4963;SDS011;2497;47.410;9.740;2023-07-22T02:18:25;9.00;;;5.07;;
4963;SDS011;2497;47.410;9.740;2023-07-22T02:20:53;6.83;;;4.47;;
4963;SDS011;2497;47.410;9.740;2023-07-22T02:23:21;12.00;;;5.47;;
4963;SDS011;2497;47.410;9.740;2023-07-22T02:25:49;6.77;;;4.20;;
4963;SDS011;2497;47.410;9.740;2023-07-22T02:28:16;6.90;;;4.67;;
4963;SDS011;2497;47.410;9.740;2023-07-22T02:30:46;6.83;;;4.30;;
4963;SDS011;2497;47.410;9.740;2023-07-22T02:33:15;6.07;;;3.90;;
4963;SDS011;2497;47.410;9.740;2023-07-22T02:35:42;9.23;;;4.63;;
4963;SDS011;2497;47.410;9.740;2023-07-22T02:38:09;5.10;;;4.27;;
4963;SDS011;2497;47.410;9.740;2023-07-22T02:40:37;9.47;;;4.37;;
4963;SDS011;2497;47.410;9.740;2023-07-22T02:43:04;7.43;;;3.47;;
4963;SDS011;2497;47.410;9.740;2023-07-22T02:45:32;7.20;;;4.47;;
4963;SDS011;2497;47.410;9.740;2023-07-22T02:47:59;5.70;;;4.30;;
4963;SDS011;2497;47.410;9.740;2023-07-22T02:50:30;6.53;;;4.10;;
4963;SDS011;2497;47.410;9.740;2023-07-22T02:52:57;9.27;;;4.27;;
4963;SDS011;2497;47.410;9.740;2023-07-22T02:55:24;4.87;;;3.60;;
4963;SDS011;2497;47.410;9.740;2023-07-22T02:57:51;6.20;;;3.83;;
4963;SDS011;2497;47.410;9.740;2023-07-22T03:00:19;6.90;;;4.33;;
4963;SDS011;2497;47.410;9.740;2023-07-22T03:02:48;6.37;;;3.80;;
4963;SDS011;2497;47.410;9.740;2023-07-22T03:05:17;6.00;;;3.70;;
4963;SDS011;2497;47.410;9.740;2023-07-22T03:07:46;7.50;;;3.87;;
4963;SDS011;2497;47.410;9.740;2023-07-22T03:10:13;9.53;;;4.50;;
4963;SDS011;2497;47.410;9.740;2023-07-22T03:12:40;7.03;;;4.90;;
4963;SDS011;2497;47.410;9.740;2023-07-22T03:15:07;6.53;;;4.23;;
4963;SDS011;2497;47.410;9.740;2023-07-22T03:17:37;6.63;;;3.33;;
4963;SDS011;2497;47.410;9.740;2023-07-22T03:20:07;6.67;;;3.80;;
4963;SDS011;2497;47.410;9.740;2023-07-22T03:22:39;4.53;;;2.90;;
4963;SDS011;2497;47.410;9.740;2023-07-22T03:25:08;4.20;;;2.80;;
4963;SDS011;2497;47.410;9.740;2023-07-22T03:27:36;6.13;;;3.60;;
4963;SDS011;2497;47.410;9.740;2023-07-22T03:30:03;6.33;;;3.53;;
4963;SDS011;2497;47.410;9.740;2023-07-22T03:32:32;5.37;;;3.83;;
4963;SDS011;2497;47.410;9.740;2023-07-22T03:35:00;5.80;;;3.80;;
4963;SDS011;2497;47.410;9.740;2023-07-22T03:37:28;7.50;;;4.47;;
4963;SDS011;2497;47.410;9.740;2023-07-22T03:39:55;6.93;;;3.97;;
4963;SDS011;2497;47.410;9.740;2023-07-22T03:42:23;6.53;;;3.13;;
4963;SDS011;2497;47.410;9.740;2023-07-22T03:44:50;7.57;;;4.30;;
4963;SDS011;2497;47.410;9.740;2023-07-22T03:47:19;6.63;;;4.17;;
4963;SDS011;2497;47.410;9.740;2023-07-22T03:49:50;6.90;;;4.10;;
4963;SDS011;2497;47.410;9.740;2023-07-22T03:52:17;10.60;;;4.70;;
4963;SDS011;2497;47.410;9.740;2023-07-22T03:54:44;5.17;;;3.73;;
4963;SDS011;2497;47.410;9.740;2023-07-22T03:57:11;7.70;;;4.33;;
4963;SDS011;2497;47.410;9.740;2023-07-22T03:59:40;6.03;;;3.70;;
4963;SDS011;2497;47.410;9.740;2023-07-22T04:02:07;5.20;;;3.23;;
4963;SDS011;2497;47.410;9.740;2023-07-22T04:04:36;5.87;;;3.63;;
4963;SDS011;2497;47.410;9.740;2023-07-22T04:07:03;7.27;;;3.90;;
4963;SDS011;2497;47.410;9.740;2023-07-22T04:09:36;4.93;;;3.53;;
4963;SDS011;2497;47.410;9.740;2023-07-22T04:12:07;6.50;;;4.00;;
4963;SDS011;2497;47.410;9.740;2023-07-22T04:14:35;7.17;;;4.03;;
4963;SDS011;2497;47.410;9.740;2023-07-22T04:17:03;8.93;;;3.70;;
4963;SDS011;2497;47.410;9.740;2023-07-22T04:19:31;5.10;;;3.10;;
4963;SDS011;2497;47.410;9.740;2023-07-22T04:21:58;8.07;;;3.27;;
4963;SDS011;2497;47.410;9.740;2023-07-22T04:24:29;6.60;;;3.80;;
4963;SDS011;2497;47.410;9.740;2023-07-22T04:26:57;6.10;;;3.87;;
4963;SDS011;2497;47.410;9.740;2023-07-22T04:29:24;7.83;;;4.17;;
4963;SDS011;2497;47.410;9.740;2023-07-22T04:31:56;9.67;;;3.90;;
4963;SDS011;2497;47.410;9.740;2023-07-22T04:34:29;8.20;;;4.20;;
4963;SDS011;2497;47.410;9.740;2023-07-22T04:36:56;5.70;;;3.77;;
4963;SDS011;2497;47.410;9.740;2023-07-22T04:39:25;7.83;;;5.80;;
4963;SDS011;2497;47.410;9.740;2023-07-22T04:41:52;9.60;;;5.30;;
4963;SDS011;2497;47.410;9.740;2023-07-22T04:44:21;8.43;;;5.07;;
4963;SDS011;2497;47.410;9.740;2023-07-22T04:46:49;7.67;;;5.20;;
4963;SDS011;2497;47.410;9.740;2023-07-22T04:49:16;6.60;;;5.03;;
4963;SDS011;2497;47.410;9.740;2023-07-22T04:51:47;7.67;;;3.70;;
4963;SDS011;2497;47.410;9.740;2023-07-22T04:54:15;10.00;;;3.77;;
4963;SDS011;2497;47.410;9.740;2023-07-22T04:56:43;7.17;;;3.70;;
4963;SDS011;2497;47.410;9.740;2023-07-22T04:59:13;8.13;;;3.33;;
4963;SDS011;2497;47.410;9.740;2023-07-22T05:01:43;6.70;;;5.30;;
4963;SDS011;2497;47.410;9.740;2023-07-22T05:04:10;8.20;;;4.90;;
4963;SDS011;2497;47.410;9.740;2023-07-22T05:06:38;5.13;;;3.70;;
4963;SDS011;2497;47.410;9.740;2023-07-22T05:09:06;5.70;;;3.10;;
4963;SDS011;2497;47.410;9.740;2023-07-22T05:11:34;7.23;;;3.67;;
4963;SDS011;2497;47.410;9.740;2023-07-22T05:14:01;11.80;;;3.53;;
4963;SDS011;2497;47.410;9.740;2023-07-22T05:16:28;6.17;;;3.60;;
4963;SDS011;2497;47.410;9.740;2023-07-22T05:18:56;5.37;;;3.13;;
4963;SDS011;2497;47.410;9.740;2023-07-22T05:21:24;5.70;;;3.30;;
4963;SDS011;2497;47.410;9.740;2023-07-22T05:23:51;5.03;;;3.40;;
4963;SDS011;2497;47.410;9.740;2023-07-22T05:26:19;5.33;;;3.37;;
4963;SDS011;2497;47.410;9.740;2023-07-22T05:28:46;6.63;;;3.00;;
4963;SDS011;2497;47.410;9.740;2023-07-22T05:31:13;6.77;;;3.40;;
4963;SDS011;2497;47.410;9.740;2023-07-22T05:33:42;5.87;;;3.77;;
4963;SDS011;2497;47.410;9.740;2023-07-22T05:36:09;7.47;;;3.60;;
4963;SDS011;2497;47.410;9.740;2023-07-22T05:38:39;7.63;;;3.50;;
4963;SDS011;2497;47.410;9.740;2023-07-22T05:41:05;5.13;;;3.33;;
4963;SDS011;2497;47.410;9.740;2023-07-22T05:43:34;4.57;;;3.20;;
4963;SDS011;2497;47.410;9.740;2023-07-22T05:46:01;7.87;;;3.60;;
4963;SDS011;2497;47.410;9.740;2023-07-22T05:48:28;7.00;;;4.30;;
4963;SDS011;2497;47.410;9.740;2023-07-22T05:50:58;5.73;;;3.73;;
4963;SDS011;2497;47.410;9.740;2023-07-22T05:53:25;5.27;;;3.60;;
4963;SDS011;2497;47.410;9.740;2023-07-22T05:55:52;4.63;;;3.23;;
4963;SDS011;2497;47.410;9.740;2023-07-22T05:58:19;8.17;;;3.40;;
4963;SDS011;2497;47.410;9.740;2023-07-22T06:00:47;4.87;;;3.13;;
4963;SDS011;2497;47.410;9.740;2023-07-22T06:03:16;4.27;;;2.90;;
4963;SDS011;2497;47.410;9.740;2023-07-22T06:05:43;4.70;;;3.07;;
4963;SDS011;2497;47.410;9.740;2023-07-22T06:08:10;5.10;;;3.80;;
4963;SDS011;2497;47.410;9.740;2023-07-22T06:10:37;4.93;;;3.10;;
4963;SDS011;2497;47.410;9.740;2023-07-22T06:13:05;5.20;;;3.30;;
4963;SDS011;2497;47.410;9.740;2023-07-22T06:15:32;7.13;;;3.80;;
4963;SDS011;2497;47.410;9.740;2023-07-22T06:18:01;5.17;;;3.33;;
4963;SDS011;2497;47.410;9.740;2023-07-22T06:20:28;4.80;;;3.20;;
4963;SDS011;2497;47.410;9.740;2023-07-22T06:22:55;5.63;;;3.23;;
4963;SDS011;2497;47.410;9.740;2023-07-22T06:25:22;6.53;;;3.40;;
4963;SDS011;2497;47.410;9.740;2023-07-22T06:27:50;4.67;;;3.00;;
4963;SDS011;2497;47.410;9.740;2023-07-22T06:30:19;6.23;;;3.00;;
4963;SDS011;2497;47.410;9.740;2023-07-22T06:32:46;8.10;;;3.33;;
4963;SDS011;2497;47.410;9.740;2023-07-22T06:35:14;8.77;;;3.73;;
4963;SDS011;2497;47.410;9.740;2023-07-22T06:37:41;4.90;;;3.60;;
4963;SDS011;2497;47.410;9.740;2023-07-22T06:40:08;6.10;;;3.20;;
4963;SDS011;2497;47.410;9.740;2023-07-22T06:42:36;5.27;;;3.47;;
4963;SDS011;2497;47.410;9.740;2023-07-22T06:45:05;5.07;;;3.23;;
4963;SDS011;2497;47.410;9.740;2023-07-22T06:47:32;12.17;;;4.47;;
4963;SDS011;2497;47.410;9.740;2023-07-22T06:49:59;8.43;;;4.40;;
4963;SDS011;2497;47.410;9.740;2023-07-22T06:52:30;6.33;;;3.87;;
4963;SDS011;2497;47.410;9.740;2023-07-22T06:54:58;7.03;;;4.60;;
4963;SDS011;2497;47.410;9.740;2023-07-22T06:57:25;12.30;;;4.50;;
4963;SDS011;2497;47.410;9.740;2023-07-22T06:59:53;6.53;;;4.00;;
4963;SDS011;2497;47.410;9.740;2023-07-22T07:02:20;8.00;;;4.90;;
4963;SDS011;2497;47.410;9.740;2023-07-22T07:04:47;6.60;;;4.03;;
4963;SDS011;2497;47.410;9.740;2023-07-22T07:07:15;7.77;;;4.00;;
4963;SDS011;2497;47.410;9.740;2023-07-22T07:09:43;7.90;;;3.80;;
4963;SDS011;2497;47.410;9.740;2023-07-22T07:12:10;8.97;;;4.13;;
4963;SDS011;2497;47.410;9.740;2023-07-22T07:14:39;9.23;;;3.90;;
4963;SDS011;2497;47.410;9.740;2023-07-22T07:17:06;9.43;;;4.93;;
4963;SDS011;2497;47.410;9.740;2023-07-22T07:19:36;6.50;;;3.40;;
4963;SDS011;2497;47.410;9.740;2023-07-22T07:22:04;9.77;;;3.63;;
4963;SDS011;2497;47.410;9.740;2023-07-22T07:24:31;7.20;;;2.83;;
4963;SDS011;2497;47.410;9.740;2023-07-22T07:26:59;4.50;;;2.80;;
4963;SDS011;2497;47.410;9.740;2023-07-22T07:29:26;4.87;;;3.40;;
4963;SDS011;2497;47.410;9.740;2023-07-22T07:31:53;6.30;;;3.53;;
4963;SDS011;2497;47.410;9.740;2023-07-22T07:34:20;8.77;;;3.80;;
4963;SDS011;2497;47.410;9.740;2023-07-22T07:36:48;4.67;;;3.20;;
4963;SDS011;2497;47.410;9.740;2023-07-22T07:39:17;6.53;;;4.17;;
4963;SDS011;2497;47.410;9.740;2023-07-22T07:41:44;8.80;;;3.63;;
4963;SDS011;2497;47.410;9.740;2023-07-22T07:44:15;6.30;;;3.00;;
4963;SDS011;2497;47.410;9.740;2023-07-22T07:46:42;7.70;;;3.80;;
4963;SDS011;2497;47.410;9.740;2023-07-22T07:49:09;5.53;;;3.23;;
4963;SDS011;2497;47.410;9.740;2023-07-22T07:51:36;4.20;;;3.10;;
4963;SDS011;2497;47.410;9.740;2023-07-22T07:54:03;4.33;;;3.00;;
4963;SDS011;2497;47.410;9.740;2023-07-22T07:56:32;9.37;;;3.10;;
4963;SDS011;2497;47.410;9.740;2023-07-22T07:59:00;4.47;;;3.00;;
4963;SDS011;2497;47.410;9.740;2023-07-22T08:01:29;5.53;;;3.20;;
4963;SDS011;2497;47.410;9.740;2023-07-22T08:03:59;9.97;;;3.00;;
4963;SDS011;2497;47.410;9.740;2023-07-22T08:06:26;7.13;;;3.13;;
4963;SDS011;2497;47.410;9.740;2023-07-22T08:08:53;4.93;;;3.50;;
4963;SDS011;2497;47.410;9.740;2023-07-22T08:11:20;4.27;;;3.30;;
4963;SDS011;2497;47.410;9.740;2023-07-22T08:13:48;14.07;;;3.40;;
4963;SDS011;2497;47.410;9.740;2023-07-22T08:16:16;4.50;;;3.20;;
4963;SDS011;2497;47.410;9.740;2023-07-22T08:18:44;5.73;;;3.30;;
4963;SDS011;2497;47.410;9.740;2023-07-22T08:21:14;4.83;;;3.00;;
4963;SDS011;2497;47.410;9.740;2023-07-22T08:23:41;6.03;;;3.20;;
4963;SDS011;2497;47.410;9.740;2023-07-22T08:26:11;7.83;;;4.07;;
4963;SDS011;2497;47.410;9.740;2023-07-22T08:28:46;3.53;;;2.60;;
4963;SDS011;2497;47.410;9.740;2023-07-22T08:31:13;4.57;;;2.87;;
4963;SDS011;2497;47.410;9.740;2023-07-22T08:33:40;5.20;;;2.97;;
4963;SDS011;2497;47.410;9.740;2023-07-22T08:36:11;4.53;;;3.03;;
4963;SDS011;2497;47.410;9.740;2023-07-22T08:38:38;4.43;;;2.97;;
4963;SDS011;2497;47.410;9.740;2023-07-22T08:41:05;4.03;;;2.30;;
4963;SDS011;2497;47.410;9.740;2023-07-22T08:43:35;4.60;;;2.80;;
4963;SDS011;2497;47.410;9.740;2023-07-22T08:46:06;4.60;;;2.90;;
4963;SDS011;2497;47.410;9.740;2023-07-22T08:48:33;4.70;;;3.17;;
4963;SDS011;2497;47.410;9.740;2023-07-22T08:51:04;5.03;;;3.03;;
4963;SDS011;2497;47.410;9.740;2023-07-22T08:53:39;7.80;;;3.53;;
4963;SDS011;2497;47.410;9.740;2023-07-22T08:56:06;5.67;;;3.20;;
4963;SDS011;2497;47.410;9.740;2023-07-22T08:58:34;4.03;;;3.23;;
4963;SDS011;2497;47.410;9.740;2023-07-22T09:01:02;4.00;;;2.80;;
4963;SDS011;2497;47.410;9.740;2023-07-22T09:03:30;3.30;;;2.50;;
4963;SDS011;2497;47.410;9.740;2023-07-22T09:05:57;5.70;;;3.33;;
4963;SDS011;2497;47.410;9.740;2023-07-22T09:08:26;5.67;;;3.10;;
4963;SDS011;2497;47.410;9.740;2023-07-22T09:10:53;7.13;;;3.53;;
4963;SDS011;2497;47.410;9.740;2023-07-22T09:13:21;9.40;;;3.60;;
4963;SDS011;2497;47.410;9.740;2023-07-22T09:15:49;5.33;;;2.93;;
4963;SDS011;2497;47.410;9.740;2023-07-22T09:18:17;6.67;;;3.20;;
4963;SDS011;2497;47.410;9.740;2023-07-22T09:20:44;5.00;;;3.00;;
4963;SDS011;2497;47.410;9.740;2023-07-22T09:23:11;8.87;;;2.93;;
4963;SDS011;2497;47.410;9.740;2023-07-22T09:25:41;5.50;;;3.00;;
4963;SDS011;2497;47.410;9.740;2023-07-22T09:28:09;7.70;;;3.07;;
4963;SDS011;2497;47.410;9.740;2023-07-22T09:30:37;4.10;;;2.80;;
4963;SDS011;2497;47.410;9.740;2023-07-22T09:33:06;4.23;;;2.93;;
4963;SDS011;2497;47.410;9.740;2023-07-22T09:35:47;4.03;;;2.97;;
4963;SDS011;2497;47.410;9.740;2023-07-22T09:38:15;4.10;;;2.67;;
4963;SDS011;2497;47.410;9.740;2023-07-22T09:40:51;6.30;;;2.57;;
4963;SDS011;2497;47.410;9.740;2023-07-22T09:43:20;7.43;;;2.93;;
4963;SDS011;2497;47.410;9.740;2023-07-22T09:45:49;7.50;;;2.40;;
4963;SDS011;2497;47.410;9.740;2023-07-22T09:48:16;4.07;;;2.30;;
4963;SDS011;2497;47.410;9.740;2023-07-22T09:50:43;7.00;;;2.30;;
4963;SDS011;2497;47.410;9.740;2023-07-22T09:53:14;3.00;;;1.90;;
4963;SDS011;2497;47.410;9.740;2023-07-22T09:55:42;2.60;;;2.17;;
4963;SDS011;2497;47.410;9.740;2023-07-22T09:58:13;5.90;;;2.57;;
4963;SDS011;2497;47.410;9.740;2023-07-22T10:00:42;3.70;;;2.43;;
4963;SDS011;2497;47.410;9.740;2023-07-22T10:03:14;3.63;;;2.07;;
4963;SDS011;2497;47.410;9.740;2023-07-22T10:05:45;3.40;;;2.10;;
4963;SDS011;2497;47.410;9.740;2023-07-22T10:08:14;9.47;;;3.50;;
4963;SDS011;2497;47.410;9.740;2023-07-22T10:10:45;5.07;;;2.13;;
4963;SDS011;2497;47.410;9.740;2023-07-22T10:13:13;4.30;;;2.50;;
4963;SDS011;2497;47.410;9.740;2023-07-22T10:15:41;5.00;;;2.80;;
4963;SDS011;2497;47.410;9.740;2023-07-22T10:18:09;4.47;;;2.67;;
4963;SDS011;2497;47.410;9.740;2023-07-22T10:20:37;3.33;;;2.67;;
4963;SDS011;2497;47.410;9.740;2023-07-22T10:23:06;4.00;;;2.60;;
4963;SDS011;2497;47.410;9.740;2023-07-22T10:25:35;4.03;;;2.30;;
4963;SDS011;2497;47.410;9.740;2023-07-22T10:28:03;4.07;;;2.63;;
4963;SDS011;2497;47.410;9.740;2023-07-22T10:30:33;3.97;;;2.40;;
4963;SDS011;2497;47.410;9.740;2023-07-22T10:33:01;3.90;;;2.30;;
4963;SDS011;2497;47.410;9.740;2023-07-22T10:35:34;2.57;;;2.27;;
4963;SDS011;2497;47.410;9.740;2023-07-22T10:38:07;4.67;;;2.50;;
4963;SDS011;2497;47.410;9.740;2023-07-22T10:40:44;3.47;;;2.30;;
4963;SDS011;2497;47.410;9.740;2023-07-22T10:43:12;4.07;;;2.47;;
4963;SDS011;2497;47.410;9.740;2023-07-22T10:45:50;6.30;;;2.43;;
4963;SDS011;2497;47.410;9.740;2023-07-22T10:48:18;2.70;;;1.90;;
4963;SDS011;2497;47.410;9.740;2023-07-22T10:50:46;6.57;;;2.63;;
4963;SDS011;2497;47.410;9.740;2023-07-22T10:53:20;4.30;;;2.00;;
4963;SDS011;2497;47.410;9.740;2023-07-22T10:56:03;4.13;;;2.37;;
4963;SDS011;2497;47.410;9.740;2023-07-22T10:58:32;4.10;;;2.10;;
4963;SDS011;2497;47.410;9.740;2023-07-22T11:01:22;5.23;;;2.67;;
4963;SDS011;2497;47.410;9.740;2023-07-22T11:06:38;4.80;;;2.93;;
4963;SDS011;2497;47.410;9.740;2023-07-22T11:09:06;2.60;;;2.00;;
4963;SDS011;2497;47.410;9.740;2023-07-22T11:11:54;8.83;;;2.70;;
4963;SDS011;2497;47.410;9.740;2023-07-22T11:14:22;3.40;;;2.27;;
4963;SDS011;2497;47.410;9.740;2023-07-22T11:16:51;4.80;;;2.60;;
4963;SDS011;2497;47.410;9.740;2023-07-22T11:19:19;3.60;;;2.37;;
4963;SDS011;2497;47.410;9.740;2023-07-22T11:21:49;3.83;;;2.47;;
4963;SDS011;2497;47.410;9.740;2023-07-22T11:24:18;2.90;;;2.10;;
4963;SDS011;2497;47.410;9.740;2023-07-22T11:26:48;10.13;;;2.03;;
4963;SDS011;2497;47.410;9.740;2023-07-22T11:29:16;6.33;;;2.70;;
4963;SDS011;2497;47.410;9.740;2023-07-22T11:31:44;3.30;;;2.47;;
4963;SDS011;2497;47.410;9.740;2023-07-22T11:34:14;4.20;;;2.93;;
4963;SDS011;2497;47.410;9.740;2023-07-22T11:36:43;2.60;;;2.00;;
4963;SDS011;2497;47.410;9.740;2023-07-22T11:39:12;1.80;;;1.60;;
4963;SDS011;2497;47.410;9.740;2023-07-22T11:41:41;4.47;;;2.10;;
4963;SDS011;2497;47.410;9.740;2023-07-22T11:44:09;3.53;;;2.73;;
4963;SDS011;2497;47.410;9.740;2023-07-22T11:46:46;3.07;;;2.00;;
4963;SDS011;2497;47.410;9.740;2023-07-22T11:49:25;3.07;;;2.27;;
4963;SDS011;2497;47.410;9.740;2023-07-22T11:51:54;2.70;;;2.20;;
4963;SDS011;2497;47.410;9.740;2023-07-22T11:54:22;3.20;;;2.40;;
4963;SDS011;2497;47.410;9.740;2023-07-22T11:56:49;3.60;;;2.60;;
4963;SDS011;2497;47.410;9.740;2023-07-22T11:59:16;4.57;;;2.90;;
4963;SDS011;2497;47.410;9.740;2023-07-22T12:01:44;4.97;;;2.60;;
4963;SDS011;2497;47.410;9.740;2023-07-22T12:04:12;3.93;;;2.63;;
4963;SDS011;2497;47.410;9.740;2023-07-22T12:06:44;4.10;;;3.10;;
4963;SDS011;2497;47.410;9.740;2023-07-22T12:09:11;3.60;;;2.40;;
4963;SDS011;2497;47.410;9.740;2023-07-22T12:11:38;5.50;;;3.13;;
4963;SDS011;2497;47.410;9.740;2023-07-22T12:14:06;4.90;;;2.30;;
4963;SDS011;2497;47.410;9.740;2023-07-22T12:16:35;3.47;;;2.77;;
4963;SDS011;2497;47.410;9.740;2023-07-22T12:19:04;6.60;;;2.77;;
4963;SDS011;2497;47.410;9.740;2023-07-22T12:21:32;8.20;;;2.97;;
4963;SDS011;2497;47.410;9.740;2023-07-22T12:24:00;4.30;;;2.80;;
4963;SDS011;2497;47.410;9.740;2023-07-22T12:26:29;10.00;;;2.70;;
4963;SDS011;2497;47.410;9.740;2023-07-22T12:28:56;5.10;;;2.77;;
4963;SDS011;2497;47.410;9.740;2023-07-22T12:31:24;6.60;;;3.00;;
4963;SDS011;2497;47.410;9.740;2023-07-22T12:33:51;4.33;;;2.80;;
4963;SDS011;2497;47.410;9.740;2023-07-22T12:36:18;4.03;;;2.70;;
4963;SDS011;2497;47.410;9.740;2023-07-22T12:38:45;4.53;;;2.50;;
4963;SDS011;2497;47.410;9.740;2023-07-22T12:41:14;4.07;;;2.50;;
4963;SDS011;2497;47.410;9.740;2023-07-22T12:43:41;3.27;;;2.60;;
4963;SDS011;2497;47.410;9.740;2023-07-22T12:46:08;5.10;;;2.63;;
4963;SDS011;2497;47.410;9.740;2023-07-22T12:48:35;4.97;;;2.87;;
4963;SDS011;2497;47.410;9.740;2023-07-22T12:51:02;4.37;;;2.67;;
4963;SDS011;2497;47.410;9.740;2023-07-22T12:53:29;4.23;;;3.10;;
4963;SDS011;2497;47.410;9.740;2023-07-22T12:55:56;5.73;;;2.80;;
4963;SDS011;2497;47.410;9.740;2023-07-22T12:58:24;3.50;;;2.27;;
4963;SDS011;2497;47.410;9.740;2023-07-22T13:00:51;3.40;;;2.60;;
4963;SDS011;2497;47.410;9.740;2023-07-22T13:03:19;4.20;;;3.00;;
4963;SDS011;2497;47.410;9.740;2023-07-22T13:05:48;4.00;;;2.50;;
4963;SDS011;2497;47.410;9.740;2023-07-22T13:08:17;3.73;;;2.70;;
4963;SDS011;2497;47.410;9.740;2023-07-22T13:10:44;4.00;;;2.30;;
4963;SDS011;2497;47.410;9.740;2023-07-22T13:13:12;5.47;;;2.40;;
4963;SDS011;2497;47.410;9.740;2023-07-22T13:15:43;4.43;;;2.90;;
4963;SDS011;2497;47.410;9.740;2023-07-22T13:18:11;3.30;;;2.30;;
4963;SDS011;2497;47.410;9.740;2023-07-22T13:20:38;4.17;;;3.00;;
4963;SDS011;2497;47.410;9.740;2023-07-22T13:23:06;5.07;;;2.67;;
4963;SDS011;2497;47.410;9.740;2023-07-22T13:25:33;4.23;;;2.53;;
4963;SDS011;2497;47.410;9.740;2023-07-22T13:28:00;6.67;;;2.57;;
4963;SDS011;2497;47.410;9.740;2023-07-22T13:30:27;4.27;;;2.27;;
4963;SDS011;2497;47.410;9.740;2023-07-22T13:32:58;3.40;;;2.50;;
4963;SDS011;2497;47.410;9.740;2023-07-22T13:35:25;3.00;;;2.03;;
4963;SDS011;2497;47.410;9.740;2023-07-22T13:37:55;5.20;;;2.80;;
4963;SDS011;2497;47.410;9.740;2023-07-22T13:40:22;5.17;;;2.70;;
4963;SDS011;2497;47.410;9.740;2023-07-22T13:42:49;5.90;;;2.83;;
4963;SDS011;2497;47.410;9.740;2023-07-22T13:45:19;4.00;;;2.37;;
4963;SDS011;2497;47.410;9.740;2023-07-22T13:47:46;3.47;;;2.37;;
4963;SDS011;2497;47.410;9.740;2023-07-22T13:50:15;3.97;;;2.60;;
4963;SDS011;2497;47.410;9.740;2023-07-22T13:52:48;3.60;;;2.40;;
4963;SDS011;2497;47.410;9.740;2023-07-22T13:55:15;4.90;;;3.10;;
4963;SDS011;2497;47.410;9.740;2023-07-22T13:57:43;4.33;;;2.77;;
4963;SDS011;2497;47.410;9.740;2023-07-22T14:00:10;5.20;;;2.50;;
4963;SDS011;2497;47.410;9.740;2023-07-22T14:02:39;5.40;;;2.50;;
4963;SDS011;2497;47.410;9.740;2023-07-22T14:05:07;4.43;;;2.60;;
4963;SDS011;2497;47.410;9.740;2023-07-22T14:07:38;4.57;;;2.50;;
4963;SDS011;2497;47.410;9.740;2023-07-22T14:10:05;4.03;;;2.53;;
4963;SDS011;2497;47.410;9.740;2023-07-22T14:12:34;4.50;;;2.50;;
4963;SDS011;2497;47.410;9.740;2023-07-22T14:15:01;3.63;;;2.20;;
4963;SDS011;2497;47.410;9.740;2023-07-22T14:17:31;5.30;;;2.70;;
4963;SDS011;2497;47.410;9.740;2023-07-22T14:19:58;4.80;;;2.10;;
4963;SDS011;2497;47.410;9.740;2023-07-22T14:22:25;4.40;;;2.77;;
4963;SDS011;2497;47.410;9.740;2023-07-22T14:24:54;8.80;;;2.50;;
4963;SDS011;2497;47.410;9.740;2023-07-22T14:27:21;3.30;;;2.43;;
4963;SDS011;2497;47.410;9.740;2023-07-22T14:29:48;2.57;;;2.10;;
4963;SDS011;2497;47.410;9.740;2023-07-22T14:32:15;4.80;;;2.87;;
4963;SDS011;2497;47.410;9.740;2023-07-22T14:34:43;3.87;;;2.20;;
4963;SDS011;2497;47.410;9.740;2023-07-22T14:37:11;5.17;;;2.57;;
4963;SDS011;2497;47.410;9.740;2023-07-22T14:39:39;4.60;;;2.47;;
4963;SDS011;2497;47.410;9.740;2023-07-22T14:42:11;4.97;;;2.87;;
4963;SDS011;2497;47.410;9.740;2023-07-22T14:44:38;3.47;;;2.40;;
4963;SDS011;2497;47.410;9.740;2023-07-22T14:47:06;3.87;;;2.40;;
4963;SDS011;2497;47.410;9.740;2023-07-22T14:49:33;4.77;;;3.20;;
4963;SDS011;2497;47.410;9.740;2023-07-22T14:52:01;4.77;;;2.90;;
4963;SDS011;2497;47.410;9.740;2023-07-22T14:54:29;4.50;;;2.50;;
4963;SDS011;2497;47.410;9.740;2023-07-22T14:56:56;7.40;;;2.67;;
4963;SDS011;2497;47.410;9.740;2023-07-22T14:59:27;3.90;;;2.40;;
4963;SDS011;2497;47.410;9.740;2023-07-22T15:01:54;4.27;;;2.87;;
4963;SDS011;2497;47.410;9.740;2023-07-22T15:04:22;5.87;;;3.50;;
4963;SDS011;2497;47.410;9.740;2023-07-22T15:06:52;5.90;;;2.80;;
4963;SDS011;2497;47.410;9.740;2023-07-22T15:09:19;4.97;;;2.80;;
4963;SDS011;2497;47.410;9.740;2023-07-22T15:11:49;3.80;;;2.70;;
4963;SDS011;2497;47.410;9.740;2023-07-22T15:14:16;5.37;;;2.40;;
4963;SDS011;2497;47.410;9.740;2023-07-22T15:16:44;4.87;;;2.67;;
4963;SDS011;2497;47.410;9.740;2023-07-22T15:19:11;6.50;;;2.97;;
4963;SDS011;2497;47.410;9.740;2023-07-22T15:21:38;6.47;;;3.20;;
4963;SDS011;2497;47.410;9.740;2023-07-22T15:24:05;4.57;;;2.70;;